createdAt,value
2018-04-14T00:02:00.878Z,11.40
2018-04-14T00:04:28.507Z,11.40
2018-04-14T00:06:56.133Z,11.40
2018-04-14T00:09:23.752Z,11.40
2018-04-14T00:11:51.375Z,11.50
2018-04-14T00:14:19.006Z,11.50
2018-04-14T00:16:46.639Z,11.50
2018-04-14T00:19:14.256Z,11.50
2018-04-14T00:21:41.886Z,11.50
2018-04-14T00:24:09.515Z,11.50
2018-04-14T00:26:37.142Z,11.50
2018-04-14T00:29:04.767Z,11.50
2018-04-14T00:31:33.244Z,11.50
2018-04-14T00:34:00.871Z,11.60
2018-04-14T00:36:28.498Z,11.60
2018-04-14T00:38:56.131Z,11.70
2018-04-14T00:41:23.763Z,11.70
2018-04-14T00:43:51.387Z,11.70
2018-04-14T00:46:19.778Z,11.80
2018-04-14T00:48:47.439Z,11.80
2018-04-14T00:51:15.042Z,11.80
2018-04-14T00:53:47.574Z,11.90
2018-04-14T00:56:15.990Z,11.90
2018-04-14T00:58:43.630Z,11.80
2018-04-14T01:01:12.058Z,11.90
2018-04-14T01:03:43.652Z,11.80
2018-04-14T01:06:11.274Z,11.90
2018-04-14T01:08:38.911Z,12.00
2018-04-14T01:11:06.543Z,11.90
2018-04-14T01:13:34.174Z,11.90
2018-04-14T01:16:01.834Z,11.90
2018-04-14T01:18:29.467Z,11.90
2018-04-14T01:20:57.095Z,12.00
2018-04-14T01:23:24.724Z,11.90
2018-04-14T01:25:52.351Z,11.90
2018-04-14T01:28:20.753Z,11.90
2018-04-14T01:30:48.377Z,11.90
2018-04-14T01:33:16.002Z,11.90
2018-04-14T01:35:43.627Z,11.90
2018-04-14T01:38:11.259Z,11.90
2018-04-14T01:40:38.890Z,11.80
2018-04-14T01:43:06.515Z,11.80
2018-04-14T01:45:34.143Z,11.90
2018-04-14T01:48:01.762Z,11.90
2018-04-14T01:50:30.155Z,11.90
2018-04-14T01:52:58.553Z,12.00
2018-04-14T01:55:26.187Z,11.90
2018-04-14T01:57:53.810Z,12.00
2018-04-14T02:00:21.808Z,12.00
2018-04-14T02:02:49.438Z,11.90
2018-04-14T02:05:17.058Z,11.90
2018-04-14T02:07:44.688Z,11.90
2018-04-14T02:10:12.316Z,11.90
2018-04-14T02:12:39.938Z,11.90
2018-04-14T02:15:07.575Z,12.00
2018-04-14T02:17:35.195Z,12.00
2018-04-14T02:20:03.596Z,12.00
2018-04-14T02:22:32.003Z,12.00
2018-04-14T02:24:59.623Z,11.90
2018-04-14T02:27:27.266Z,11.90
2018-04-14T02:29:54.919Z,11.80
2018-04-14T02:32:22.549Z,11.80
2018-04-14T02:34:50.939Z,11.80
2018-04-14T02:37:18.567Z,11.80
2018-04-14T02:39:46.194Z,11.80
2018-04-14T02:42:13.818Z,11.80
2018-04-14T02:44:41.451Z,11.70
2018-04-14T02:47:09.074Z,11.70
2018-04-14T02:49:36.702Z,11.70
2018-04-14T02:52:04.335Z,11.70
2018-04-14T02:54:31.965Z,11.70
2018-04-14T02:56:59.591Z,11.70
2018-04-14T02:59:27.215Z,11.70
2018-04-14T03:01:54.838Z,11.70
2018-04-14T03:04:23.243Z,11.60
2018-04-14T03:06:50.880Z,11.60
2018-04-14T03:09:18.499Z,11.60
2018-04-14T03:11:46.127Z,11.50
2018-04-14T03:14:14.522Z,11.60
2018-04-14T03:16:42.155Z,11.60
2018-04-14T03:19:09.782Z,11.60
2018-04-14T03:21:37.411Z,11.60
2018-04-14T03:24:05.800Z,11.50
2018-04-14T03:26:34.186Z,11.50
2018-04-14T03:29:01.820Z,11.50
2018-04-14T03:31:30.954Z,11.50
2018-04-14T03:33:58.587Z,11.60
2018-04-14T03:36:26.206Z,11.60
2018-04-14T03:38:53.831Z,11.60
2018-04-14T03:41:22.222Z,11.80
2018-04-14T03:43:50.619Z,11.70
2018-04-14T03:46:18.242Z,11.70
2018-04-14T03:48:46.643Z,11.80
2018-04-14T03:51:14.263Z,11.70
2018-04-14T03:53:41.911Z,11.70
2018-04-14T03:56:09.534Z,11.50
2018-04-14T03:58:37.159Z,11.50
2018-04-14T04:01:10.084Z,11.40
2018-04-14T04:03:37.706Z,11.40
2018-04-14T04:06:05.331Z,11.40
2018-04-14T04:08:33.722Z,11.50
2018-04-14T04:11:02.116Z,11.50
2018-04-14T04:13:29.744Z,11.50
2018-04-14T04:15:57.376Z,11.40
2018-04-14T04:18:36.863Z,11.40
2018-04-14T04:21:17.050Z,11.00
2018-04-14T04:23:57.379Z,11.00
2018-04-14T04:26:26.155Z,10.90
2018-04-14T04:28:53.782Z,10.90
2018-04-14T04:31:21.411Z,10.90
2018-04-14T04:33:49.799Z,10.90
2018-04-14T04:36:17.446Z,10.90
2018-04-14T04:38:45.066Z,11.00
2018-04-14T04:41:12.694Z,10.90
2018-04-14T04:43:41.083Z,10.80
2018-04-14T04:46:08.710Z,10.80
2018-04-14T04:48:37.099Z,10.90
2018-04-14T04:51:04.730Z,10.80
2018-04-14T04:53:32.356Z,10.90
2018-04-14T04:56:00.787Z,11.10
2018-04-14T04:58:28.461Z,11.10
2018-04-14T05:00:56.042Z,11.10
2018-04-14T05:03:23.663Z,11.20
2018-04-14T05:05:51.295Z,11.20
2018-04-14T05:08:19.678Z,11.30
2018-04-14T05:10:48.062Z,11.30
2018-04-14T05:13:16.493Z,11.40
2018-04-14T05:15:44.096Z,11.40
2018-04-14T05:18:11.718Z,11.50
2018-04-14T05:20:39.350Z,11.60
2018-04-14T05:23:07.742Z,11.60
2018-04-14T05:25:35.371Z,11.60
2018-04-14T05:28:02.999Z,11.60
2018-04-14T05:30:30.627Z,11.70
2018-04-14T05:32:59.023Z,11.70
2018-04-14T05:35:26.648Z,11.70
2018-04-14T05:37:54.284Z,11.80
2018-04-14T05:40:21.920Z,11.70
2018-04-14T05:42:50.307Z,11.70
2018-04-14T05:45:17.930Z,11.70
2018-04-14T05:47:45.555Z,11.70
2018-04-14T05:50:14.190Z,11.60
2018-04-14T05:52:41.824Z,11.70
2018-04-14T05:55:09.443Z,11.60
2018-04-14T05:57:37.837Z,11.60
2018-04-14T06:00:06.223Z,11.50
2018-04-14T06:02:33.851Z,11.50
2018-04-14T06:05:01.480Z,11.60
2018-04-14T06:07:29.106Z,11.60
2018-04-14T06:09:57.505Z,11.70
2018-04-14T06:12:25.128Z,11.70
2018-04-14T06:14:52.761Z,11.90
2018-04-14T06:17:20.379Z,11.90
2018-04-14T06:19:48.784Z,11.90
2018-04-14T06:22:16.415Z,11.90
2018-04-14T06:24:44.035Z,12.00
2018-04-14T06:27:11.666Z,12.00
2018-04-14T06:29:40.051Z,12.20
2018-04-14T06:32:08.455Z,12.20
2018-04-14T06:34:36.086Z,12.20
2018-04-14T06:37:03.706Z,12.20
2018-04-14T06:39:31.346Z,12.20
2018-04-14T06:42:05.616Z,12.30
2018-04-14T06:44:33.242Z,12.40
2018-04-14T06:47:00.867Z,12.30
2018-04-14T06:49:28.498Z,12.40
2018-04-14T06:52:02.547Z,12.50
2018-04-14T06:54:30.311Z,12.60
2018-04-14T06:56:57.933Z,12.60
2018-04-14T06:59:25.658Z,12.60
2018-04-14T07:01:53.263Z,12.60
2018-04-14T07:04:20.889Z,12.60
2018-04-14T07:06:48.514Z,12.60
2018-04-14T07:09:16.138Z,12.50
2018-04-14T07:11:43.772Z,12.50
2018-04-14T07:14:11.391Z,12.60
2018-04-14T07:16:39.014Z,12.60
2018-04-14T07:19:07.406Z,12.80
2018-04-14T07:21:35.806Z,12.80
2018-04-14T07:24:03.436Z,12.80
2018-04-14T07:26:31.063Z,12.90
2018-04-14T07:28:58.703Z,13.10
2018-04-14T07:31:26.323Z,13.10
2018-04-14T07:33:53.951Z,13.10
2018-04-14T07:36:21.575Z,13.10
2018-04-14T07:38:49.202Z,13.20
2018-04-14T07:41:16.829Z,13.40
2018-04-14T07:43:44.463Z,13.30
2018-04-14T07:46:12.102Z,13.10
2018-04-14T07:48:40.743Z,13.10
2018-04-14T07:51:08.378Z,13.10
2018-04-14T07:53:36.007Z,13.10
2018-04-14T07:56:03.638Z,13.20
2018-04-14T07:58:32.035Z,13.40
2018-04-14T08:00:59.664Z,13.40
2018-04-14T08:03:27.286Z,13.50
2018-04-14T08:05:54.918Z,13.60
2018-04-14T08:08:23.319Z,13.80
2018-04-14T08:10:50.952Z,13.80
2018-04-14T08:13:18.579Z,14.00
2018-04-14T08:15:46.202Z,14.10
2018-04-14T08:18:14.591Z,14.10
2018-04-14T08:20:42.992Z,14.50
2018-04-14T08:23:10.617Z,14.50
2018-04-14T08:25:41.717Z,14.50
2018-04-14T08:28:10.379Z,15.00
2018-04-14T08:30:38.770Z,15.10
2018-04-14T08:33:06.399Z,15.10
2018-04-14T08:35:34.083Z,15.20
2018-04-14T08:38:02.484Z,15.20
2018-04-14T08:40:30.115Z,15.20
2018-04-14T08:42:57.743Z,15.40
2018-04-14T08:45:25.367Z,15.60
2018-04-14T08:47:53.909Z,15.70
2018-04-14T08:50:21.553Z,15.60
2018-04-14T08:52:49.276Z,15.60
2018-04-14T08:55:16.939Z,15.80
2018-04-14T08:57:44.622Z,15.90
2018-04-14T09:00:13.091Z,16.30
2018-04-14T09:02:40.766Z,16.30
2018-04-14T09:05:08.485Z,16.70
2018-04-14T09:07:36.986Z,16.80
2018-04-14T09:10:04.634Z,17.30
2018-04-14T09:12:32.294Z,18.00
2018-04-14T09:14:59.952Z,18.20
2018-04-14T09:17:27.633Z,18.30
2018-04-14T09:19:55.291Z,18.40
2018-04-14T09:22:24.663Z,18.30
2018-04-14T09:24:52.331Z,18.80
2018-04-14T09:27:20.084Z,18.40
2018-04-14T09:29:47.757Z,18.10
2018-04-14T09:32:15.415Z,18.20
2018-04-14T09:34:43.082Z,18.40
2018-04-14T09:37:11.065Z,18.20
2018-04-14T09:39:38.771Z,18.30
2018-04-14T09:42:06.488Z,19.00
2018-04-14T09:44:34.156Z,19.60
2018-04-14T09:47:01.852Z,19.50
2018-04-14T09:49:30.383Z,19.30
2018-04-14T09:51:59.180Z,19.20
2018-04-14T09:54:26.997Z,19.50
2018-04-14T09:56:54.736Z,20.00
2018-04-14T09:59:23.160Z,20.40
2018-04-14T10:01:51.677Z,20.00
2018-04-14T10:04:19.349Z,20.00
2018-04-14T10:06:47.069Z,20.20
2018-04-14T10:09:15.584Z,19.90
2018-04-14T10:11:44.011Z,20.20
2018-04-14T10:14:11.690Z,20.20
2018-04-14T10:16:39.331Z,20.30
2018-04-14T10:19:06.998Z,20.10
2018-04-14T10:21:34.662Z,19.90
2018-04-14T10:24:02.327Z,19.80
2018-04-14T10:26:29.994Z,18.80
2018-04-14T10:28:57.678Z,18.30
2018-04-14T10:31:25.323Z,18.20
2018-04-14T10:33:53.008Z,18.40
2018-04-14T10:36:20.675Z,18.50
2018-04-14T10:38:48.341Z,18.60
2018-04-14T10:41:16.027Z,18.70
2018-04-14T10:43:43.736Z,18.70
2018-04-14T10:46:11.409Z,19.50
2018-04-14T10:48:39.075Z,20.40
2018-04-14T10:51:06.728Z,20.30
2018-04-14T10:53:34.414Z,20.90
2018-04-14T10:56:02.114Z,21.20
2018-04-14T10:58:29.769Z,20.80
2018-04-14T11:00:57.563Z,20.80
2018-04-14T11:03:25.388Z,21.70
2018-04-14T11:05:53.114Z,22.70
2018-04-14T11:08:20.764Z,22.90
2018-04-14T11:10:48.945Z,22.90
2018-04-14T11:13:16.651Z,23.50
2018-04-14T11:15:44.358Z,22.20
2018-04-14T11:18:16.709Z,21.60
2018-04-14T11:20:44.391Z,21.00
2018-04-14T11:23:12.046Z,20.00
2018-04-14T11:25:39.694Z,19.60
2018-04-14T11:28:07.375Z,19.40
2018-04-14T11:30:35.130Z,18.90
2018-04-14T11:33:02.905Z,19.30
2018-04-14T11:35:30.584Z,19.60
2018-04-14T11:37:58.344Z,19.80
2018-04-14T11:40:26.782Z,21.40
2018-04-14T11:42:54.412Z,21.40
2018-04-14T11:45:22.087Z,22.00
2018-04-14T11:47:49.773Z,22.70
2018-04-14T11:50:17.445Z,23.70
2018-04-14T11:52:45.132Z,24.50
2018-04-14T11:55:12.840Z,24.40
2018-04-14T11:57:40.789Z,24.20
2018-04-14T12:00:09.225Z,23.70
2018-04-14T12:02:36.921Z,23.60
2018-04-14T12:05:05.345Z,23.50
2018-04-14T12:07:33.006Z,23.50
2018-04-14T12:10:00.677Z,24.50
2018-04-14T12:12:28.334Z,25.30
2018-04-14T12:14:56.790Z,24.10
2018-04-14T12:17:24.438Z,24.10
2018-04-14T12:19:52.128Z,23.60
2018-04-14T12:22:20.537Z,22.20
2018-04-14T12:24:48.217Z,22.20
2018-04-14T12:27:15.928Z,21.40
2018-04-14T12:29:43.573Z,21.60
2018-04-14T12:32:11.234Z,22.60
2018-04-14T12:34:38.922Z,23.50
2018-04-14T12:37:06.552Z,24.40
2018-04-14T12:39:34.199Z,25.20
2018-04-14T12:42:02.079Z,25.60
2018-04-14T12:44:29.760Z,26.30
2018-04-14T12:46:57.417Z,26.80
2018-04-14T12:49:25.031Z,26.90
2018-04-14T12:51:52.660Z,27.00
2018-04-14T12:54:20.293Z,27.70
2018-04-14T12:56:47.915Z,27.70
2018-04-14T12:59:15.540Z,27.60
2018-04-14T13:01:43.168Z,27.50
2018-04-14T13:04:10.803Z,27.40
2018-04-14T13:06:38.427Z,27.80
2018-04-14T13:09:06.818Z,28.80
2018-04-14T13:11:34.452Z,28.70
2018-04-14T13:14:02.091Z,29.70
2018-04-14T13:16:29.715Z,28.30
2018-04-14T13:18:57.363Z,27.50
2018-04-14T13:21:25.754Z,26.80
2018-04-14T13:23:53.382Z,26.70
2018-04-14T13:26:21.011Z,27.40
2018-04-14T13:28:48.631Z,27.60
2018-04-14T13:31:17.027Z,26.60
2018-04-14T13:33:44.659Z,26.60
2018-04-14T13:36:12.291Z,27.70
2018-04-14T13:38:39.917Z,27.90
2018-04-14T13:41:08.312Z,28.80
2018-04-14T13:43:35.947Z,28.80
2018-04-14T13:46:03.575Z,28.70
2018-04-14T13:51:05.123Z,25.30
2018-04-14T13:53:41.451Z,24.40
2018-04-14T13:56:09.139Z,24.70
2018-04-14T13:58:37.528Z,25.90
2018-04-14T14:01:05.927Z,26.40
2018-04-14T14:03:33.556Z,26.40
2018-04-14T14:06:01.948Z,25.60
2018-04-14T14:08:29.592Z,25.60
2018-04-14T14:10:57.227Z,25.90
2018-04-14T14:13:26.778Z,26.50
2018-04-14T14:15:54.411Z,26.30
2018-04-14T14:18:22.035Z,25.60
2018-04-14T14:20:49.656Z,25.10
2018-04-14T14:23:17.294Z,24.50
2018-04-14T14:25:44.915Z,23.90
2018-04-14T14:28:12.539Z,24.10
2018-04-14T14:30:40.158Z,23.90
2018-04-14T14:33:08.563Z,23.40
2018-04-14T14:35:36.196Z,23.30
2018-04-14T14:38:03.819Z,22.70
2018-04-14T14:40:37.051Z,22.30
2018-04-14T14:43:04.819Z,22.50
2018-04-14T14:45:32.448Z,22.80
2018-04-14T14:48:00.087Z,22.90
2018-04-14T14:50:27.718Z,22.40
2018-04-14T14:52:55.348Z,22.50
2018-04-14T14:55:22.981Z,22.60
2018-04-14T14:57:51.383Z,21.80
2018-04-14T15:00:19.392Z,21.70
2018-04-14T15:02:47.048Z,21.90
2018-04-14T15:05:14.638Z,22.10
2018-04-14T15:07:42.266Z,22.40
2018-04-14T15:10:09.888Z,22.70
2018-04-14T15:12:38.275Z,22.30
2018-04-14T15:15:06.675Z,22.30
2018-04-14T15:17:34.321Z,22.30
2018-04-14T15:20:01.927Z,22.40
2018-04-14T15:22:29.547Z,22.10
2018-04-14T15:24:57.955Z,22.30
2018-04-14T15:27:25.672Z,22.30
2018-04-14T15:29:53.272Z,22.10
2018-04-14T15:32:21.655Z,21.50
2018-04-14T15:34:50.051Z,21.20
2018-04-14T15:37:17.675Z,21.20
2018-04-14T15:39:45.331Z,21.40
2018-04-14T15:42:12.927Z,21.20
2018-04-14T15:44:40.551Z,21.10
2018-04-14T15:47:08.176Z,21.00
2018-04-14T15:49:36.564Z,20.60
2018-04-14T15:52:04.186Z,20.60
2018-04-14T15:54:31.808Z,20.40
2018-04-14T15:56:59.439Z,20.60
2018-04-14T15:59:27.072Z,20.40
2018-04-14T16:01:54.689Z,20.20
2018-04-14T16:04:22.369Z,20.00
2018-04-14T16:06:49.931Z,20.10
2018-04-14T16:09:17.568Z,20.20
2018-04-14T16:11:45.962Z,20.40
2018-04-14T16:14:14.363Z,20.40
2018-04-14T16:16:41.988Z,20.40
2018-04-14T16:19:09.623Z,20.30
2018-04-14T16:21:37.252Z,20.00
2018-04-14T16:24:04.888Z,20.10
2018-04-14T16:26:32.567Z,20.00
2018-04-14T16:29:00.969Z,19.90
2018-04-14T16:31:29.361Z,19.70
2018-04-14T16:33:56.987Z,19.60
2018-04-14T16:36:29.052Z,19.50
2018-04-14T16:38:56.679Z,19.60
2018-04-14T16:41:24.313Z,19.30
2018-04-14T16:43:52.705Z,19.00
2018-04-14T16:46:20.327Z,18.90
2018-04-14T16:48:47.958Z,19.00
2018-04-14T16:51:15.590Z,19.00
2018-04-14T16:53:43.991Z,18.70
2018-04-14T16:56:11.619Z,18.70
2018-04-14T16:58:39.253Z,18.60
2018-04-14T17:01:06.898Z,18.50
2018-04-14T17:03:34.522Z,18.40
2018-04-14T17:06:02.164Z,18.50
2018-04-14T17:08:29.792Z,18.40
2018-04-14T17:10:57.419Z,18.20
2018-04-14T17:13:25.820Z,18.10
2018-04-14T17:15:54.219Z,18.10
2018-04-14T17:18:21.866Z,18.10
2018-04-14T17:20:50.263Z,18.20
2018-04-14T17:23:17.891Z,18.20
2018-04-14T17:25:45.522Z,18.20
2018-04-14T17:28:13.147Z,18.00
2018-04-14T17:30:41.547Z,17.80
2018-04-14T17:33:09.183Z,17.80
2018-04-14T17:35:36.810Z,17.90
2018-04-14T17:38:04.448Z,17.70
2018-04-14T17:40:32.083Z,17.70
2018-04-14T17:42:59.715Z,17.70
2018-04-14T17:45:27.347Z,17.60
2018-04-14T17:47:54.975Z,17.60
2018-04-14T17:50:22.603Z,17.60
2018-04-14T17:52:50.226Z,17.50
2018-04-14T17:55:17.883Z,17.30
2018-04-14T17:57:45.507Z,17.20
2018-04-14T18:00:13.142Z,17.00
2018-04-14T18:02:40.772Z,17.00
2018-04-14T18:05:08.447Z,17.00
2018-04-14T18:07:36.847Z,16.90
2018-04-14T18:10:06.435Z,16.80
2018-04-14T18:12:34.059Z,16.70
2018-04-14T18:15:01.682Z,16.70
2018-04-14T18:17:29.315Z,16.50
2018-04-14T18:19:56.947Z,16.50
2018-04-14T18:22:24.575Z,16.40
2018-04-14T18:24:52.966Z,16.10
2018-04-14T18:27:21.360Z,16.10
2018-04-14T18:29:48.983Z,16.00
2018-04-14T18:32:16.646Z,16.00
2018-04-14T18:34:44.247Z,15.90
2018-04-14T18:37:12.648Z,15.80
2018-04-14T18:39:40.282Z,15.80
2018-04-14T18:42:07.906Z,15.80
2018-04-14T18:44:35.547Z,15.70
2018-04-14T18:47:03.181Z,15.80
2018-04-14T18:49:30.807Z,15.70
2018-04-14T18:51:58.439Z,15.60
2018-04-14T18:54:26.071Z,15.50
2018-04-14T18:56:53.738Z,15.50
2018-04-14T18:59:21.323Z,15.40
2018-04-14T19:01:49.719Z,15.30
2018-04-14T19:04:17.347Z,15.30
2018-04-14T19:06:44.970Z,15.30
2018-04-14T19:09:12.616Z,15.20
2018-04-14T19:11:41.039Z,15.00
2018-04-14T19:14:08.705Z,15.00
2018-04-14T19:16:36.375Z,14.90
2018-04-14T19:19:04.160Z,14.90
2018-04-14T19:21:31.847Z,14.90
2018-04-14T19:23:59.524Z,14.90
2018-04-14T19:26:27.187Z,14.90
2018-04-14T19:28:54.856Z,14.70
2018-04-14T19:31:22.520Z,14.70
2018-04-14T19:33:50.203Z,14.70
2018-04-14T19:36:18.629Z,14.50
2018-04-14T19:38:46.287Z,14.50
2018-04-14T19:41:13.998Z,14.50
2018-04-14T19:43:41.691Z,14.40
2018-04-14T19:46:10.100Z,14.30
2018-04-14T19:48:37.828Z,14.20
2018-04-14T19:51:05.421Z,14.20
2018-04-14T19:53:33.093Z,14.10
2018-04-14T19:56:00.754Z,14.10
2018-04-14T19:58:29.192Z,13.90
2018-04-14T20:00:56.884Z,13.90
2018-04-14T20:03:24.573Z,13.80
2018-04-14T20:05:52.187Z,13.70
2018-04-14T20:08:19.816Z,13.70
2018-04-14T20:10:47.452Z,13.60
2018-04-14T20:13:15.847Z,13.60
2018-04-14T20:15:43.483Z,13.50
2018-04-14T20:18:11.107Z,13.50
2018-04-14T20:20:38.739Z,13.60
2018-04-14T20:23:06.371Z,13.50
2018-04-14T20:25:33.999Z,13.50
2018-04-14T20:28:01.639Z,13.60
2018-04-14T20:30:29.262Z,13.50
2018-04-14T20:32:56.882Z,13.50
2018-04-14T20:35:24.510Z,13.40
2018-04-14T20:37:52.139Z,13.40
2018-04-14T20:40:19.767Z,13.40
2018-04-14T20:42:47.403Z,13.30
2018-04-14T20:45:15.035Z,13.30
2018-04-14T20:47:42.663Z,13.30
2018-04-14T20:50:10.294Z,13.30
2018-04-14T20:52:37.925Z,13.30
2018-04-14T20:55:05.557Z,13.30
2018-04-14T20:57:33.939Z,13.30
2018-04-14T21:00:01.563Z,13.20
2018-04-14T21:02:29.324Z,13.30
2018-04-14T21:04:56.954Z,13.40
2018-04-14T21:07:24.626Z,13.40
2018-04-14T21:09:52.284Z,13.40
2018-04-14T21:12:20.711Z,13.40
2018-04-14T21:14:48.369Z,13.40
2018-04-14T21:17:15.986Z,13.30
2018-04-14T21:19:44.403Z,13.40
2018-04-14T21:22:12.035Z,13.30
2018-04-14T21:24:39.663Z,13.20
2018-04-14T21:27:07.291Z,13.20
2018-04-14T21:29:34.915Z,13.30
2018-04-14T21:32:02.543Z,13.30
2018-04-14T21:34:30.173Z,13.30
2018-04-14T21:36:58.562Z,13.30
2018-04-14T21:39:26.200Z,13.20
2018-04-14T21:41:53.854Z,13.30
2018-04-14T21:44:21.491Z,13.30
2018-04-14T21:46:49.420Z,13.20
2018-04-14T21:49:17.816Z,13.10
2018-04-14T21:51:45.443Z,13.10
2018-04-14T21:54:13.437Z,13.00
2018-04-14T21:56:41.838Z,13.00
2018-04-14T21:59:09.458Z,12.90
2018-04-14T22:01:37.094Z,12.90
2018-04-14T22:04:04.711Z,12.90
2018-04-14T22:06:33.103Z,12.90
2018-04-14T22:09:01.495Z,12.80
2018-04-14T22:11:29.891Z,12.80
2018-04-14T22:13:57.515Z,12.80
2018-04-14T22:16:25.149Z,12.80
2018-04-14T22:18:52.776Z,12.70
2018-04-14T22:21:21.173Z,12.80
2018-04-14T22:23:49.935Z,12.80
2018-04-14T22:26:18.327Z,12.70
2018-04-14T22:28:46.727Z,12.70
2018-04-14T22:31:25.726Z,12.60
2018-04-14T22:33:53.374Z,12.60
2018-04-14T22:36:21.007Z,12.50
2018-04-14T22:38:49.034Z,12.50
2018-04-14T22:41:17.431Z,12.50
2018-04-14T22:43:45.825Z,12.50
2018-04-14T22:46:13.469Z,12.40
2018-04-14T22:48:41.854Z,12.30
2018-04-14T22:51:10.264Z,12.30
2018-04-14T22:53:38.306Z,12.20
2018-04-14T22:56:05.934Z,12.20
2018-04-14T22:58:33.564Z,12.20
2018-04-14T23:01:01.627Z,12.20
2018-04-14T23:03:30.024Z,12.20
2018-04-14T23:05:57.651Z,12.10
2018-04-14T23:08:25.284Z,12.20
2018-04-14T23:10:52.911Z,12.10
2018-04-14T23:13:21.496Z,12.10
2018-04-14T23:15:49.878Z,12.10
2018-04-14T23:18:18.275Z,12.00
2018-04-14T23:20:45.907Z,12.00
2018-04-14T23:23:13.543Z,12.10
2018-04-14T23:25:41.167Z,12.10
2018-04-14T23:28:08.795Z,12.00
2018-04-14T23:30:36.431Z,11.90
2018-04-14T23:33:04.055Z,11.80
2018-04-14T23:35:32.452Z,11.80
2018-04-14T23:38:00.080Z,11.80
2018-04-14T23:40:27.707Z,11.80
2018-04-14T23:42:55.335Z,11.80
2018-04-14T23:45:23.735Z,11.80
2018-04-14T23:47:51.364Z,11.80
2018-04-14T23:50:18.996Z,11.90
2018-04-14T23:52:46.628Z,11.80
2018-04-14T23:55:15.011Z,12.00
2018-04-14T23:57:42.648Z,11.90
